sensor_id;sensor_type;location;lat;lon;timestamp;temperature;humidity
21678;DHT22;11000;50.360;7.582;2022-08-11T00:00:04;24.10;58.50
21678;DHT22;11000;50.360;7.582;2022-08-11T00:02:38;24.00;58.90
21678;DHT22;11000;50.360;7.582;2022-08-11T00:05:11;23.90;59.50
21678;DHT22;11000;50.360;7.582;2022-08-11T00:07:32;23.90;59.60
21678;DHT22;11000;50.360;7.582;2022-08-11T00:09:54;23.80;60.20
21678;DHT22;11000;50.360;7.582;2022-08-11T00:12:16;23.60;61.00
21678;DHT22;11000;50.360;7.582;2022-08-11T00:14:37;23.50;61.50
21678;DHT22;11000;50.360;7.582;2022-08-11T00:19:24;23.50;62.60
21678;DHT22;11000;50.360;7.582;2022-08-11T00:21:45;23.50;62.90
21678;DHT22;11000;50.360;7.582;2022-08-11T00:24:06;23.50;63.00
21678;DHT22;11000;50.360;7.582;2022-08-11T00:26:28;23.50;61.20
21678;DHT22;11000;50.360;7.582;2022-08-11T00:28:49;23.50;61.80
21678;DHT22;11000;50.360;7.582;2022-08-11T00:31:27;23.50;61.70
21678;DHT22;11000;50.360;7.582;2022-08-11T00:33:50;23.40;61.90
21678;DHT22;11000;50.360;7.582;2022-08-11T00:36:15;23.40;62.80
21678;DHT22;11000;50.360;7.582;2022-08-11T00:38:39;23.30;63.70
21678;DHT22;11000;50.360;7.582;2022-08-11T00:48:49;23.00;65.00
21678;DHT22;11000;50.360;7.582;2022-08-11T00:54:35;22.90;67.30
21678;DHT22;11000;50.360;7.582;2022-08-11T01:02:47;22.80;69.30
21678;DHT22;11000;50.360;7.582;2022-08-11T01:11:12;22.70;68.00
21678;DHT22;11000;50.360;7.582;2022-08-11T01:14:00;22.70;68.20
21678;DHT22;11000;50.360;7.582;2022-08-11T01:22:18;22.60;69.40
21678;DHT22;11000;50.360;7.582;2022-08-11T01:25:05;22.60;68.80
21678;DHT22;11000;50.360;7.582;2022-08-11T01:30:38;22.50;69.60
21678;DHT22;11000;50.360;7.582;2022-08-11T01:38:57;22.40;71.90
21678;DHT22;11000;50.360;7.582;2022-08-11T01:45:02;22.30;73.10
21678;DHT22;11000;50.360;7.582;2022-08-11T01:50:27;22.10;74.60
21678;DHT22;11000;50.360;7.582;2022-08-11T01:53:00;22.10;75.90
21678;DHT22;11000;50.360;7.582;2022-08-11T01:55:33;22.00;76.80
21678;DHT22;11000;50.360;7.582;2022-08-11T02:00:28;21.80;81.70
21678;DHT22;11000;50.360;7.582;2022-08-11T02:03:12;21.80;82.50
21678;DHT22;11000;50.360;7.582;2022-08-11T02:08:48;21.70;84.50
21678;DHT22;11000;50.360;7.582;2022-08-11T02:11:22;21.50;87.70
21678;DHT22;11000;50.360;7.582;2022-08-11T02:13:56;21.40;90.00
21678;DHT22;11000;50.360;7.582;2022-08-11T02:17:02;21.40;91.20
21678;DHT22;11000;50.360;7.582;2022-08-11T02:28:04;20.90;99.00
21678;DHT22;11000;50.360;7.582;2022-08-11T02:30:34;21.00;99.20
21678;DHT22;11000;50.360;7.582;2022-08-11T02:33:16;21.00;99.80
21678;DHT22;11000;50.360;7.582;2022-08-11T02:36:06;20.90;99.90
21678;DHT22;11000;50.360;7.582;2022-08-11T02:38:54;20.80;99.90
21678;DHT22;11000;50.360;7.582;2022-08-11T02:41:52;20.90;99.90
21678;DHT22;11000;50.360;7.582;2022-08-11T02:51:19;20.80;99.90
21678;DHT22;11000;50.360;7.582;2022-08-11T02:54:14;20.90;99.90
21678;DHT22;11000;50.360;7.582;2022-08-11T02:56:49;20.80;99.90
21678;DHT22;11000;50.360;7.582;2022-08-11T02:59:27;20.90;99.90
21678;DHT22;11000;50.360;7.582;2022-08-11T03:04:48;20.80;99.90
21678;DHT22;11000;50.360;7.582;2022-08-11T03:07:36;20.70;99.90
21678;DHT22;11000;50.360;7.582;2022-08-11T03:10:23;20.70;99.90
21678;DHT22;11000;50.360;7.582;2022-08-11T03:13:14;20.70;99.90
21678;DHT22;11000;50.360;7.582;2022-08-11T03:16:16;20.60;99.90
21678;DHT22;11000;50.360;7.582;2022-08-11T03:21:37;20.30;99.90
21678;DHT22;11000;50.360;7.582;2022-08-11T03:24:07;20.40;99.90
21678;DHT22;11000;50.360;7.582;2022-08-11T03:32:00;19.90;99.90
21678;DHT22;11000;50.360;7.582;2022-08-11T03:34:24;19.70;99.90
21678;DHT22;11000;50.360;7.582;2022-08-11T03:40:07;19.70;99.90
21678;DHT22;11000;50.360;7.582;2022-08-11T03:42:54;19.70;99.90
21678;DHT22;11000;50.360;7.582;2022-08-11T03:45:36;19.80;99.90
21678;DHT22;11000;50.360;7.582;2022-08-11T03:48:19;19.90;99.90
21678;DHT22;11000;50.360;7.582;2022-08-11T03:50:57;19.80;99.90
21678;DHT22;11000;50.360;7.582;2022-08-11T03:59:29;19.80;99.90
21678;DHT22;11000;50.360;7.582;2022-08-11T04:16:40;19.60;99.90
21678;DHT22;11000;50.360;7.582;2022-08-11T04:19:29;19.60;99.90
21678;DHT22;11000;50.360;7.582;2022-08-11T04:22:16;19.60;99.90
21678;DHT22;11000;50.360;7.582;2022-08-11T04:24:57;19.60;99.90
21678;DHT22;11000;50.360;7.582;2022-08-11T04:28:33;19.60;99.90
21678;DHT22;11000;50.360;7.582;2022-08-11T04:30:57;19.50;99.90
21678;DHT22;11000;50.360;7.582;2022-08-11T04:33:58;19.50;99.90
21678;DHT22;11000;50.360;7.582;2022-08-11T04:37:19;19.40;99.90
21678;DHT22;11000;50.360;7.582;2022-08-11T04:40:10;19.40;99.90
21678;DHT22;11000;50.360;7.582;2022-08-11T04:48:46;19.30;99.90
21678;DHT22;11000;50.360;7.582;2022-08-11T04:57:18;19.20;99.90
21678;DHT22;11000;50.360;7.582;2022-08-11T05:00:08;19.10;99.90
21678;DHT22;11000;50.360;7.582;2022-08-11T05:03:07;19.00;99.90
21678;DHT22;11000;50.360;7.582;2022-08-11T05:06:08;19.10;99.90
21678;DHT22;11000;50.360;7.582;2022-08-11T05:09:00;19.10;99.90
21678;DHT22;11000;50.360;7.582;2022-08-11T05:16:55;19.10;99.90
21678;DHT22;11000;50.360;7.582;2022-08-11T05:19:35;18.90;99.90
21678;DHT22;11000;50.360;7.582;2022-08-11T05:22:18;18.80;99.90
21678;DHT22;11000;50.360;7.582;2022-08-11T05:25:09;18.80;99.90
21678;DHT22;11000;50.360;7.582;2022-08-11T05:28:02;18.90;99.90
21678;DHT22;11000;50.360;7.582;2022-08-11T05:30:43;19.00;99.90
21678;DHT22;11000;50.360;7.582;2022-08-11T05:33:32;19.10;99.90
21678;DHT22;11000;50.360;7.582;2022-08-11T05:36:26;19.00;99.90
21678;DHT22;11000;50.360;7.582;2022-08-11T05:38:58;19.20;99.90
21678;DHT22;11000;50.360;7.582;2022-08-11T05:41:38;19.50;99.90
21678;DHT22;11000;50.360;7.582;2022-08-11T05:44:19;19.80;99.90
21678;DHT22;11000;50.360;7.582;2022-08-11T05:46:59;20.30;99.90
21678;DHT22;11000;50.360;7.582;2022-08-11T05:49:39;20.50;99.90
21678;DHT22;11000;50.360;7.582;2022-08-11T05:52:27;20.70;99.90
21678;DHT22;11000;50.360;7.582;2022-08-11T05:55:08;21.00;99.90
21678;DHT22;11000;50.360;7.582;2022-08-11T05:57:53;20.90;99.90
21678;DHT22;11000;50.360;7.582;2022-08-11T06:00:15;21.30;99.90
21678;DHT22;11000;50.360;7.582;2022-08-11T06:02:44;21.70;99.90
21678;DHT22;11000;50.360;7.582;2022-08-11T06:05:06;22.00;99.90
21678;DHT22;11000;50.360;7.582;2022-08-11T06:07:28;22.30;99.90
21678;DHT22;11000;50.360;7.582;2022-08-11T06:09:50;22.60;99.90
21678;DHT22;11000;50.360;7.582;2022-08-11T06:12:25;22.80;99.90
21678;DHT22;11000;50.360;7.582;2022-08-11T06:14:53;23.10;99.90
21678;DHT22;11000;50.360;7.582;2022-08-11T06:17:26;23.30;99.90
21678;DHT22;11000;50.360;7.582;2022-08-11T06:19:49;23.50;99.90
21678;DHT22;11000;50.360;7.582;2022-08-11T06:22:12;23.70;99.90
21678;DHT22;11000;50.360;7.582;2022-08-11T06:24:40;23.70;99.90
21678;DHT22;11000;50.360;7.582;2022-08-11T06:27:02;23.80;99.90
21678;DHT22;11000;50.360;7.582;2022-08-11T06:29:25;24.00;99.90
21678;DHT22;11000;50.360;7.582;2022-08-11T06:31:58;24.20;99.90
21678;DHT22;11000;50.360;7.582;2022-08-11T06:34:34;24.50;99.70
21678;DHT22;11000;50.360;7.582;2022-08-11T06:37:29;24.70;98.80
21678;DHT22;11000;50.360;7.582;2022-08-11T06:40:33;25.00;96.40
21678;DHT22;11000;50.360;7.582;2022-08-11T06:43:04;25.10;94.60
21678;DHT22;11000;50.360;7.582;2022-08-11T06:48:38;25.20;94.30
21678;DHT22;11000;50.360;7.582;2022-08-11T06:51:02;25.40;92.30
21678;DHT22;11000;50.360;7.582;2022-08-11T06:53:32;25.60;90.20
21678;DHT22;11000;50.360;7.582;2022-08-11T06:55:57;25.60;90.10
21678;DHT22;11000;50.360;7.582;2022-08-11T06:58:39;25.70;90.30
21678;DHT22;11000;50.360;7.582;2022-08-11T07:02:06;25.70;86.70
21678;DHT22;11000;50.360;7.582;2022-08-11T07:04:08;25.60;83.50
21678;DHT22;11000;50.360;7.582;2022-08-11T07:07:07;25.30;83.10
21678;DHT22;11000;50.360;7.582;2022-08-11T07:10:06;25.60;86.10
21678;DHT22;11000;50.360;7.582;2022-08-11T07:12:56;26.20;81.60
21678;DHT22;11000;50.360;7.582;2022-08-11T07:15:36;26.50;79.40
21678;DHT22;11000;50.360;7.582;2022-08-11T07:18:06;26.90;78.80
21678;DHT22;11000;50.360;7.582;2022-08-11T07:20:46;26.90;76.10
21678;DHT22;11000;50.360;7.582;2022-08-11T07:23:28;26.90;75.90
21678;DHT22;11000;50.360;7.582;2022-08-11T07:26:10;27.20;75.90
21678;DHT22;11000;50.360;7.582;2022-08-11T07:28:49;27.20;75.30
21678;DHT22;11000;50.360;7.582;2022-08-11T07:31:25;27.30;75.70
21678;DHT22;11000;50.360;7.582;2022-08-11T07:33:51;27.50;74.50
21678;DHT22;11000;50.360;7.582;2022-08-11T07:36:13;27.90;72.30
21678;DHT22;11000;50.360;7.582;2022-08-11T07:38:40;28.00;71.80
21678;DHT22;11000;50.360;7.582;2022-08-11T07:41:04;27.70;69.40
21678;DHT22;11000;50.360;7.582;2022-08-11T07:43:24;27.50;69.80
21678;DHT22;11000;50.360;7.582;2022-08-11T07:45:45;27.80;71.00
21678;DHT22;11000;50.360;7.582;2022-08-11T07:48:25;28.10;69.60
21678;DHT22;11000;50.360;7.582;2022-08-11T07:51:05;28.20;69.40
21678;DHT22;11000;50.360;7.582;2022-08-11T07:53:45;28.40;66.40
21678;DHT22;11000;50.360;7.582;2022-08-11T07:56:06;28.10;66.70
21678;DHT22;11000;50.360;7.582;2022-08-11T07:58:28;27.90;67.20
21678;DHT22;11000;50.360;7.582;2022-08-11T08:01:08;28.10;66.90
21678;DHT22;11000;50.360;7.582;2022-08-11T08:03:49;28.40;67.70
21678;DHT22;11000;50.360;7.582;2022-08-11T08:06:31;28.50;66.00
21678;DHT22;11000;50.360;7.582;2022-08-11T08:09:11;28.70;66.10
21678;DHT22;11000;50.360;7.582;2022-08-11T08:11:51;28.80;65.90
21678;DHT22;11000;50.360;7.582;2022-08-11T08:14:31;29.10;63.30
21678;DHT22;11000;50.360;7.582;2022-08-11T08:17:11;29.70;62.50
21678;DHT22;11000;50.360;7.582;2022-08-11T08:19:50;29.90;61.00
21678;DHT22;11000;50.360;7.582;2022-08-11T08:22:12;29.50;60.90
21678;DHT22;11000;50.360;7.582;2022-08-11T08:24:34;29.80;60.50
21678;DHT22;11000;50.360;7.582;2022-08-11T08:26:56;29.90;59.80
21678;DHT22;11000;50.360;7.582;2022-08-11T08:29:20;29.80;58.60
21678;DHT22;11000;50.360;7.582;2022-08-11T08:32:00;29.70;59.30
21678;DHT22;11000;50.360;7.582;2022-08-11T08:34:22;28.60;61.90
21678;DHT22;11000;50.360;7.582;2022-08-11T08:36:48;29.00;61.50
21678;DHT22;11000;50.360;7.582;2022-08-11T08:39:08;29.90;60.70
21678;DHT22;11000;50.360;7.582;2022-08-11T08:41:34;30.50;58.60
21678;DHT22;11000;50.360;7.582;2022-08-11T08:43:58;31.10;56.50
21678;DHT22;11000;50.360;7.582;2022-08-11T08:46:27;31.00;54.80
21678;DHT22;11000;50.360;7.582;2022-08-11T08:48:49;30.50;55.40
21678;DHT22;11000;50.360;7.582;2022-08-11T08:51:11;30.20;55.70
21678;DHT22;11000;50.360;7.582;2022-08-11T08:53:52;30.20;56.20
21678;DHT22;11000;50.360;7.582;2022-08-11T08:56:14;30.10;56.00
21678;DHT22;11000;50.360;7.582;2022-08-11T08:58:37;30.30;55.90
21678;DHT22;11000;50.360;7.582;2022-08-11T09:00:58;30.60;55.10
21678;DHT22;11000;50.360;7.582;2022-08-11T09:03:20;30.80;53.50
21678;DHT22;11000;50.360;7.582;2022-08-11T09:05:42;30.00;53.20
21678;DHT22;11000;50.360;7.582;2022-08-11T09:08:02;30.00;53.90
21678;DHT22;11000;50.360;7.582;2022-08-11T09:10:24;30.70;54.50
21678;DHT22;11000;50.360;7.582;2022-08-11T09:12:45;30.60;53.20
21678;DHT22;11000;50.360;7.582;2022-08-11T09:15:08;30.10;52.40
21678;DHT22;11000;50.360;7.582;2022-08-11T09:22:31;30.90;50.60
21678;DHT22;11000;50.360;7.582;2022-08-11T09:25:11;31.50;49.40
21678;DHT22;11000;50.360;7.582;2022-08-11T09:27:53;31.70;48.00
21678;DHT22;11000;50.360;7.582;2022-08-11T09:30:16;31.70;48.20
21678;DHT22;11000;50.360;7.582;2022-08-11T09:32:38;31.50;47.80
21678;DHT22;11000;50.360;7.582;2022-08-11T09:35:01;31.30;49.30
21678;DHT22;11000;50.360;7.582;2022-08-11T09:37:23;31.00;48.00
21678;DHT22;11000;50.360;7.582;2022-08-11T09:40:03;30.70;48.90
21678;DHT22;11000;50.360;7.582;2022-08-11T09:42:44;31.40;48.60
21678;DHT22;11000;50.360;7.582;2022-08-11T09:45:24;31.70;49.20
21678;DHT22;11000;50.360;7.582;2022-08-11T09:47:45;30.60;48.40
21678;DHT22;11000;50.360;7.582;2022-08-11T09:50:08;30.60;47.30
21678;DHT22;11000;50.360;7.582;2022-08-11T09:52:33;30.40;47.50
21678;DHT22;11000;50.360;7.582;2022-08-11T09:54:55;30.40;47.70
21678;DHT22;11000;50.360;7.582;2022-08-11T09:57:22;30.50;47.30
21678;DHT22;11000;50.360;7.582;2022-08-11T10:00:01;30.40;47.70
21678;DHT22;11000;50.360;7.582;2022-08-11T10:02:26;30.80;47.50
21678;DHT22;11000;50.360;7.582;2022-08-11T10:04:49;31.30;47.30
21678;DHT22;11000;50.360;7.582;2022-08-11T10:07:14;31.60;46.10
21678;DHT22;11000;50.360;7.582;2022-08-11T10:09:41;31.70;44.90
21678;DHT22;11000;50.360;7.582;2022-08-11T10:12:07;31.90;45.20
21678;DHT22;11000;50.360;7.582;2022-08-11T10:14:29;31.20;44.70
21678;DHT22;11000;50.360;7.582;2022-08-11T10:17:09;31.10;45.50
21678;DHT22;11000;50.360;7.582;2022-08-11T10:19:32;31.00;47.10
21678;DHT22;11000;50.360;7.582;2022-08-11T10:21:54;31.40;46.30
21678;DHT22;11000;50.360;7.582;2022-08-11T10:24:33;31.40;46.00
21678;DHT22;11000;50.360;7.582;2022-08-11T10:27:13;31.30;46.30
21678;DHT22;11000;50.360;7.582;2022-08-11T10:29:38;31.60;45.30
21678;DHT22;11000;50.360;7.582;2022-08-11T10:32:22;31.30;43.50
21678;DHT22;11000;50.360;7.582;2022-08-11T10:35:03;30.90;44.40
21678;DHT22;11000;50.360;7.582;2022-08-11T10:37:26;31.60;44.70
21678;DHT22;11000;50.360;7.582;2022-08-11T10:39:54;31.40;45.30
21678;DHT22;11000;50.360;7.582;2022-08-11T10:42:16;31.20;45.50
21678;DHT22;11000;50.360;7.582;2022-08-11T10:44:57;31.40;44.70
21678;DHT22;11000;50.360;7.582;2022-08-11T10:47:18;31.50;44.90
21678;DHT22;11000;50.360;7.582;2022-08-11T10:49:55;31.60;44.70
21678;DHT22;11000;50.360;7.582;2022-08-11T10:52:36;32.00;43.90
21678;DHT22;11000;50.360;7.582;2022-08-11T10:55:16;31.50;43.30
21678;DHT22;11000;50.360;7.582;2022-08-11T10:57:55;31.50;44.30
21678;DHT22;11000;50.360;7.582;2022-08-11T11:00:36;31.10;43.60
21678;DHT22;11000;50.360;7.582;2022-08-11T11:02:56;30.70;44.60
21678;DHT22;11000;50.360;7.582;2022-08-11T11:05:38;30.40;44.70
21678;DHT22;11000;50.360;7.582;2022-08-11T11:08:10;30.00;45.20
21678;DHT22;11000;50.360;7.582;2022-08-11T11:10:51;29.70;46.00
21678;DHT22;11000;50.360;7.582;2022-08-11T11:13:12;29.90;45.40
21678;DHT22;11000;50.360;7.582;2022-08-11T11:15:52;30.00;45.90
21678;DHT22;11000;50.360;7.582;2022-08-11T11:18:33;29.90;45.50
21678;DHT22;11000;50.360;7.582;2022-08-11T11:21:00;29.90;46.20
21678;DHT22;11000;50.360;7.582;2022-08-11T11:24:11;29.80;45.90
21678;DHT22;11000;50.360;7.582;2022-08-11T11:26:38;30.50;46.50
21678;DHT22;11000;50.360;7.582;2022-08-11T11:37:06;31.40;42.80
21678;DHT22;11000;50.360;7.582;2022-08-11T11:39:30;32.00;42.90
21678;DHT22;11000;50.360;7.582;2022-08-11T11:41:53;31.50;42.10
21678;DHT22;11000;50.360;7.582;2022-08-11T11:44:15;31.30;42.90
21678;DHT22;11000;50.360;7.582;2022-08-11T11:46:36;31.40;43.30
21678;DHT22;11000;50.360;7.582;2022-08-11T11:48:57;31.90;43.20
21678;DHT22;11000;50.360;7.582;2022-08-11T11:51:23;31.60;41.80
21678;DHT22;11000;50.360;7.582;2022-08-11T11:53:45;30.60;43.10
21678;DHT22;11000;50.360;7.582;2022-08-11T11:56:06;31.20;43.90
21678;DHT22;11000;50.360;7.582;2022-08-11T11:58:27;30.70;42.90
21678;DHT22;11000;50.360;7.582;2022-08-11T12:01:06;30.60;43.40
21678;DHT22;11000;50.360;7.582;2022-08-11T12:03:36;30.90;42.60
21678;DHT22;11000;50.360;7.582;2022-08-11T12:05:59;30.80;43.50
21678;DHT22;11000;50.360;7.582;2022-08-11T12:08:20;30.80;43.20
21678;DHT22;11000;50.360;7.582;2022-08-11T12:10:52;30.60;43.70
21678;DHT22;11000;50.360;7.582;2022-08-11T12:13:33;30.40;43.00
21678;DHT22;11000;50.360;7.582;2022-08-11T12:16:00;30.40;43.40
21678;DHT22;11000;50.360;7.582;2022-08-11T12:18:23;30.30;44.10
21678;DHT22;11000;50.360;7.582;2022-08-11T12:20:44;30.60;45.20
21678;DHT22;11000;50.360;7.582;2022-08-11T12:23:05;30.80;44.40
21678;DHT22;11000;50.360;7.582;2022-08-11T12:25:44;31.10;44.00
21678;DHT22;11000;50.360;7.582;2022-08-11T12:28:24;30.60;44.20
21678;DHT22;11000;50.360;7.582;2022-08-11T12:30:45;31.10;44.70
21678;DHT22;11000;50.360;7.582;2022-08-11T12:33:07;31.00;43.70
21678;DHT22;11000;50.360;7.582;2022-08-11T12:35:28;30.70;44.00
21678;DHT22;11000;50.360;7.582;2022-08-11T12:37:51;30.50;44.70
21678;DHT22;11000;50.360;7.582;2022-08-11T12:40:18;30.30;44.80
21678;DHT22;11000;50.360;7.582;2022-08-11T12:43:02;30.60;44.70
21678;DHT22;11000;50.360;7.582;2022-08-11T12:45:42;31.10;44.20
21678;DHT22;11000;50.360;7.582;2022-08-11T12:48:09;31.40;43.80
21678;DHT22;11000;50.360;7.582;2022-08-11T12:51:00;32.20;44.20
21678;DHT22;11000;50.360;7.582;2022-08-11T12:53:45;31.90;43.10
21678;DHT22;11000;50.360;7.582;2022-08-11T12:56:08;31.80;43.70
21678;DHT22;11000;50.360;7.582;2022-08-11T12:58:48;31.00;44.00
21678;DHT22;11000;50.360;7.582;2022-08-11T13:01:11;31.50;44.30
21678;DHT22;11000;50.360;7.582;2022-08-11T13:03:50;31.90;43.40
21678;DHT22;11000;50.360;7.582;2022-08-11T13:06:30;32.40;42.50
21678;DHT22;11000;50.360;7.582;2022-08-11T13:08:52;32.60;42.10
21678;DHT22;11000;50.360;7.582;2022-08-11T13:11:17;32.80;41.60
21678;DHT22;11000;50.360;7.582;2022-08-11T13:13:57;32.50;42.00
21678;DHT22;11000;50.360;7.582;2022-08-11T13:16:17;32.50;42.30
21678;DHT22;11000;50.360;7.582;2022-08-11T13:18:40;32.20;42.00
21678;DHT22;11000;50.360;7.582;2022-08-11T13:21:02;31.30;42.70
21678;DHT22;11000;50.360;7.582;2022-08-11T13:23:25;31.10;43.70
21678;DHT22;11000;50.360;7.582;2022-08-11T13:25:46;30.90;43.60
21678;DHT22;11000;50.360;7.582;2022-08-11T13:28:08;30.80;43.70
21678;DHT22;11000;50.360;7.582;2022-08-11T13:30:31;31.00;44.30
21678;DHT22;11000;50.360;7.582;2022-08-11T13:33:11;31.20;43.70
21678;DHT22;11000;50.360;7.582;2022-08-11T13:35:34;32.10;43.50
21678;DHT22;11000;50.360;7.582;2022-08-11T13:37:55;32.50;42.00
21678;DHT22;11000;50.360;7.582;2022-08-11T13:40:19;32.50;42.20
21678;DHT22;11000;50.360;7.582;2022-08-11T13:42:43;32.30;41.70
21678;DHT22;11000;50.360;7.582;2022-08-11T13:45:04;31.70;42.60
21678;DHT22;11000;50.360;7.582;2022-08-11T13:47:27;31.60;42.50
21678;DHT22;11000;50.360;7.582;2022-08-11T13:49:48;31.20;42.90
21678;DHT22;11000;50.360;7.582;2022-08-11T13:52:15;31.10;43.10
21678;DHT22;11000;50.360;7.582;2022-08-11T13:54:36;31.50;43.90
21678;DHT22;11000;50.360;7.582;2022-08-11T13:57:04;31.90;43.10
21678;DHT22;11000;50.360;7.582;2022-08-11T13:59:25;31.40;43.60
21678;DHT22;11000;50.360;7.582;2022-08-11T14:01:53;31.20;44.10
21678;DHT22;11000;50.360;7.582;2022-08-11T14:04:20;31.00;44.20
21678;DHT22;11000;50.360;7.582;2022-08-11T14:06:47;31.00;44.00
21678;DHT22;11000;50.360;7.582;2022-08-11T14:09:10;31.30;44.00
21678;DHT22;11000;50.360;7.582;2022-08-11T14:11:31;31.90;43.50
21678;DHT22;11000;50.360;7.582;2022-08-11T14:14:19;32.00;42.30
21678;DHT22;11000;50.360;7.582;2022-08-11T14:16:43;32.00;43.50
21678;DHT22;11000;50.360;7.582;2022-08-11T14:19:04;32.30;42.50
21678;DHT22;11000;50.360;7.582;2022-08-11T14:21:29;32.10;42.60
21678;DHT22;11000;50.360;7.582;2022-08-11T14:24:11;31.70;42.60
21678;DHT22;11000;50.360;7.582;2022-08-11T14:26:32;31.90;43.00
21678;DHT22;11000;50.360;7.582;2022-08-11T14:29:18;32.00;42.70
21678;DHT22;11000;50.360;7.582;2022-08-11T14:31:53;32.00;42.50
21678;DHT22;11000;50.360;7.582;2022-08-11T14:34:17;31.70;42.40
21678;DHT22;11000;50.360;7.582;2022-08-11T14:36:44;32.10;43.20
21678;DHT22;11000;50.360;7.582;2022-08-11T14:39:09;31.80;42.80
21678;DHT22;11000;50.360;7.582;2022-08-11T14:41:32;31.80;42.50
21678;DHT22;11000;50.360;7.582;2022-08-11T14:44:11;31.80;42.50
21678;DHT22;11000;50.360;7.582;2022-08-11T14:46:51;31.90;43.10
21678;DHT22;11000;50.360;7.582;2022-08-11T14:49:25;31.80;42.80
21678;DHT22;11000;50.360;7.582;2022-08-11T14:51:47;31.90;42.30
21678;DHT22;11000;50.360;7.582;2022-08-11T14:54:08;32.20;42.20
21678;DHT22;11000;50.360;7.582;2022-08-11T14:56:48;32.60;40.80
21678;DHT22;11000;50.360;7.582;2022-08-11T14:59:10;32.40;40.50
21678;DHT22;11000;50.360;7.582;2022-08-11T15:01:31;32.60;40.50
21678;DHT22;11000;50.360;7.582;2022-08-11T15:04:10;32.20;40.20
21678;DHT22;11000;50.360;7.582;2022-08-11T15:06:31;32.10;40.50
21678;DHT22;11000;50.360;7.582;2022-08-11T15:08:54;32.30;40.00
21678;DHT22;11000;50.360;7.582;2022-08-11T15:11:16;32.40;39.80
21678;DHT22;11000;50.360;7.582;2022-08-11T15:13:59;32.20;40.20
21678;DHT22;11000;50.360;7.582;2022-08-11T15:16:21;32.20;39.80
21678;DHT22;11000;50.360;7.582;2022-08-11T15:19:02;31.90;40.40
21678;DHT22;11000;50.360;7.582;2022-08-11T15:21:24;32.20;40.10
21678;DHT22;11000;50.360;7.582;2022-08-11T15:24:03;31.90;39.90
21678;DHT22;11000;50.360;7.582;2022-08-11T15:26:40;31.90;40.80
21678;DHT22;11000;50.360;7.582;2022-08-11T15:29:22;32.10;39.70
21678;DHT22;11000;50.360;7.582;2022-08-11T15:32:03;31.90;39.70
21678;DHT22;11000;50.360;7.582;2022-08-11T15:34:44;31.70;39.80
21678;DHT22;11000;50.360;7.582;2022-08-11T15:37:26;32.10;40.80
21678;DHT22;11000;50.360;7.582;2022-08-11T15:40:08;32.50;40.00
21678;DHT22;11000;50.360;7.582;2022-08-11T15:43:03;32.10;39.60
21678;DHT22;11000;50.360;7.582;2022-08-11T15:45:45;31.50;40.30
21678;DHT22;11000;50.360;7.582;2022-08-11T15:48:11;31.30;41.00
21678;DHT22;11000;50.360;7.582;2022-08-11T15:50:38;31.50;41.30
21678;DHT22;11000;50.360;7.582;2022-08-11T15:53:02;31.60;41.20
21678;DHT22;11000;50.360;7.582;2022-08-11T15:55:28;31.90;41.40
21678;DHT22;11000;50.360;7.582;2022-08-11T15:57:53;32.30;40.80
21678;DHT22;11000;50.360;7.582;2022-08-11T16:00:35;32.30;39.90
21678;DHT22;11000;50.360;7.582;2022-08-11T16:03:17;32.20;40.30
21678;DHT22;11000;50.360;7.582;2022-08-11T16:05:57;32.30;40.20
21678;DHT22;11000;50.360;7.582;2022-08-11T16:08:20;32.20;40.20
21678;DHT22;11000;50.360;7.582;2022-08-11T16:10:44;32.20;40.30
21678;DHT22;11000;50.360;7.582;2022-08-11T16:13:05;32.20;40.30
21678;DHT22;11000;50.360;7.582;2022-08-11T16:15:26;31.70;40.30
21678;DHT22;11000;50.360;7.582;2022-08-11T16:18:07;31.40;40.80
21678;DHT22;11000;50.360;7.582;2022-08-11T16:20:29;31.30;41.20
21678;DHT22;11000;50.360;7.582;2022-08-11T16:22:54;31.30;41.40
21678;DHT22;11000;50.360;7.582;2022-08-11T16:25:21;31.30;41.30
21678;DHT22;11000;50.360;7.582;2022-08-11T16:27:47;31.00;41.40
21678;DHT22;11000;50.360;7.582;2022-08-11T16:30:09;30.90;42.00
21678;DHT22;11000;50.360;7.582;2022-08-11T16:32:30;31.00;41.70
21678;DHT22;11000;50.360;7.582;2022-08-11T16:35:28;31.00;41.90
21678;DHT22;11000;50.360;7.582;2022-08-11T16:38:02;30.90;42.00
21678;DHT22;11000;50.360;7.582;2022-08-11T16:40:43;31.00;41.90
21678;DHT22;11000;50.360;7.582;2022-08-11T16:43:07;31.00;41.90
21678;DHT22;11000;50.360;7.582;2022-08-11T16:45:47;31.20;41.30
21678;DHT22;11000;50.360;7.582;2022-08-11T16:48:32;31.30;41.70
21678;DHT22;11000;50.360;7.582;2022-08-11T16:50:54;31.50;41.60
21678;DHT22;11000;50.360;7.582;2022-08-11T16:53:15;31.30;41.00
21678;DHT22;11000;50.360;7.582;2022-08-11T16:55:38;31.30;41.50
21678;DHT22;11000;50.360;7.582;2022-08-11T16:57:59;31.40;42.00
21678;DHT22;11000;50.360;7.582;2022-08-11T17:00:38;31.30;41.40
21678;DHT22;11000;50.360;7.582;2022-08-11T17:03:00;31.30;41.70
21678;DHT22;11000;50.360;7.582;2022-08-11T17:05:44;31.00;41.80
21678;DHT22;11000;50.360;7.582;2022-08-11T17:08:32;30.90;42.30
21678;DHT22;11000;50.360;7.582;2022-08-11T17:11:13;30.90;42.70
21678;DHT22;11000;50.360;7.582;2022-08-11T17:13:58;30.90;42.30
21678;DHT22;11000;50.360;7.582;2022-08-11T17:16:23;30.80;42.30
21678;DHT22;11000;50.360;7.582;2022-08-11T17:18:53;30.70;42.30
21678;DHT22;11000;50.360;7.582;2022-08-11T17:21:28;30.60;41.90
21678;DHT22;11000;50.360;7.582;2022-08-11T17:23:54;30.60;42.10
21678;DHT22;11000;50.360;7.582;2022-08-11T17:26:21;30.60;42.40
21678;DHT22;11000;50.360;7.582;2022-08-11T17:28:44;30.60;42.30
21678;DHT22;11000;50.360;7.582;2022-08-11T17:31:05;30.60;42.50
21678;DHT22;11000;50.360;7.582;2022-08-11T17:33:45;30.40;42.30
21678;DHT22;11000;50.360;7.582;2022-08-11T17:36:25;30.40;42.70
21678;DHT22;11000;50.360;7.582;2022-08-11T17:38:46;30.40;42.60
21678;DHT22;11000;50.360;7.582;2022-08-11T17:41:09;30.30;42.60
21678;DHT22;11000;50.360;7.582;2022-08-11T17:43:49;30.30;42.70
21678;DHT22;11000;50.360;7.582;2022-08-11T17:46:29;30.30;43.00
21678;DHT22;11000;50.360;7.582;2022-08-11T17:49:09;30.20;43.30
21678;DHT22;11000;50.360;7.582;2022-08-11T17:51:30;30.30;43.30
21678;DHT22;11000;50.360;7.582;2022-08-11T17:54:10;30.20;43.40
21678;DHT22;11000;50.360;7.582;2022-08-11T17:56:51;30.10;43.20
21678;DHT22;11000;50.360;7.582;2022-08-11T17:59:32;30.10;43.40
21678;DHT22;11000;50.360;7.582;2022-08-11T18:02:12;30.10;43.40
21678;DHT22;11000;50.360;7.582;2022-08-11T18:04:53;30.10;43.70
21678;DHT22;11000;50.360;7.582;2022-08-11T18:07:16;30.00;43.60
21678;DHT22;11000;50.360;7.582;2022-08-11T18:09:56;29.90;43.70
21678;DHT22;11000;50.360;7.582;2022-08-11T18:12:36;29.90;44.00
21678;DHT22;11000;50.360;7.582;2022-08-11T18:15:15;29.90;44.00
21678;DHT22;11000;50.360;7.582;2022-08-11T18:17:54;29.80;44.30